sensor_id;sensor_type;location;lat;lon;timestamp;P1;durP1;ratioP1;P2;durP2;ratioP2
76856;SDS011;66179;44.686;37.628;2023-04-25T00:02:06;9.75;;;3.50;;
76856;SDS011;66179;44.686;37.628;2023-04-25T00:04:32;8.48;;;2.78;;
76856;SDS011;66179;44.686;37.628;2023-04-25T00:06:59;8.07;;;2.85;;
76856;SDS011;66179;44.686;37.628;2023-04-25T00:09:29;10.90;;;2.80;;
76856;SDS011;66179;44.686;37.628;2023-04-25T00:11:55;9.88;;;2.80;;
76856;SDS011;66179;44.686;37.628;2023-04-25T00:14:25;9.85;;;2.78;;
76856;SDS011;66179;44.686;37.628;2023-04-25T00:16:53;8.85;;;3.00;;
76856;SDS011;66179;44.686;37.628;2023-04-25T00:19:20;8.45;;;2.97;;
76856;SDS011;66179;44.686;37.628;2023-04-25T00:21:46;7.00;;;2.37;;
76856;SDS011;66179;44.686;37.628;2023-04-25T00:24:13;10.88;;;2.80;;
76856;SDS011;66179;44.686;37.628;2023-04-25T00:26:39;11.65;;;2.95;;
76856;SDS011;66179;44.686;37.628;2023-04-25T00:29:06;7.40;;;2.67;;
76856;SDS011;66179;44.686;37.628;2023-04-25T00:31:32;9.75;;;2.83;;
76856;SDS011;66179;44.686;37.628;2023-04-25T00:33:59;10.17;;;2.60;;
76856;SDS011;66179;44.686;37.628;2023-04-25T00:36:26;6.95;;;2.90;;
76856;SDS011;66179;44.686;37.628;2023-04-25T00:38:53;9.02;;;3.03;;
76856;SDS011;66179;44.686;37.628;2023-04-25T00:41:20;8.32;;;2.97;;
76856;SDS011;66179;44.686;37.628;2023-04-25T00:43:48;11.25;;;3.13;;
76856;SDS011;66179;44.686;37.628;2023-04-25T00:46:15;7.43;;;2.77;;
76856;SDS011;66179;44.686;37.628;2023-04-25T00:48:42;7.15;;;2.53;;
76856;SDS011;66179;44.686;37.628;2023-04-25T00:51:09;8.30;;;2.63;;
76856;SDS011;66179;44.686;37.628;2023-04-25T00:53:45;6.15;;;2.78;;
76856;SDS011;66179;44.686;37.628;2023-04-25T00:56:14;8.65;;;2.85;;
76856;SDS011;66179;44.686;37.628;2023-04-25T00:58:41;11.00;;;3.10;;
76856;SDS011;66179;44.686;37.628;2023-04-25T01:01:10;10.00;;;3.10;;
76856;SDS011;66179;44.686;37.628;2023-04-25T01:03:38;7.65;;;2.80;;
76856;SDS011;66179;44.686;37.628;2023-04-25T01:06:09;6.32;;;2.38;;
76856;SDS011;66179;44.686;37.628;2023-04-25T01:08:37;7.78;;;2.60;;
76856;SDS011;66179;44.686;37.628;2023-04-25T01:11:05;10.77;;;2.53;;
76856;SDS011;66179;44.686;37.628;2023-04-25T01:13:32;8.85;;;2.30;;
76856;SDS011;66179;44.686;37.628;2023-04-25T01:16:00;8.57;;;2.47;;
76856;SDS011;66179;44.686;37.628;2023-04-25T01:18:28;6.60;;;2.35;;
76856;SDS011;66179;44.686;37.628;2023-04-25T01:20:55;7.05;;;2.47;;
76856;SDS011;66179;44.686;37.628;2023-04-25T01:23:22;10.47;;;2.80;;
76856;SDS011;66179;44.686;37.628;2023-04-25T01:25:50;6.72;;;2.40;;
76856;SDS011;66179;44.686;37.628;2023-04-25T01:28:17;8.07;;;2.50;;
76856;SDS011;66179;44.686;37.628;2023-04-25T01:30:44;7.45;;;2.55;;
76856;SDS011;66179;44.686;37.628;2023-04-25T01:33:12;8.07;;;3.65;;
76856;SDS011;66179;44.686;37.628;2023-04-25T01:35:41;9.07;;;2.73;;
76856;SDS011;66179;44.686;37.628;2023-04-25T01:38:08;7.85;;;2.90;;
76856;SDS011;66179;44.686;37.628;2023-04-25T01:40:36;7.40;;;3.10;;
76856;SDS011;66179;44.686;37.628;2023-04-25T01:43:07;9.23;;;3.30;;
76856;SDS011;66179;44.686;37.628;2023-04-25T01:45:37;8.60;;;3.40;;
76856;SDS011;66179;44.686;37.628;2023-04-25T01:48:09;10.33;;;3.80;;
76856;SDS011;66179;44.686;37.628;2023-04-25T01:50:38;8.45;;;3.53;;
76856;SDS011;66179;44.686;37.628;2023-04-25T01:53:06;9.70;;;3.55;;
76856;SDS011;66179;44.686;37.628;2023-04-25T01:55:35;7.85;;;3.05;;
76856;SDS011;66179;44.686;37.628;2023-04-25T01:58:08;11.35;;;2.83;;
76856;SDS011;66179;44.686;37.628;2023-04-25T02:00:54;9.03;;;3.13;;
76856;SDS011;66179;44.686;37.628;2023-04-25T02:03:21;8.10;;;3.35;;
76856;SDS011;66179;44.686;37.628;2023-04-25T02:05:48;7.72;;;3.40;;
76856;SDS011;66179;44.686;37.628;2023-04-25T02:08:15;8.30;;;3.45;;
76856;SDS011;66179;44.686;37.628;2023-04-25T02:10:42;10.35;;;3.88;;
76856;SDS011;66179;44.686;37.628;2023-04-25T02:13:19;8.73;;;3.87;;
76856;SDS011;66179;44.686;37.628;2023-04-25T02:15:58;10.23;;;3.60;;
76856;SDS011;66179;44.686;37.628;2023-04-25T02:18:25;10.60;;;3.88;;
76856;SDS011;66179;44.686;37.628;2023-04-25T02:20:52;8.90;;;4.35;;
76856;SDS011;66179;44.686;37.628;2023-04-25T02:23:20;10.43;;;3.88;;
76856;SDS011;66179;44.686;37.628;2023-04-25T02:25:46;11.63;;;4.67;;
76856;SDS011;66179;44.686;37.628;2023-04-25T02:28:13;10.45;;;4.32;;
76856;SDS011;66179;44.686;37.628;2023-04-25T02:30:40;11.48;;;4.38;;
76856;SDS011;66179;44.686;37.628;2023-04-25T02:33:06;8.93;;;4.07;;
76856;SDS011;66179;44.686;37.628;2023-04-25T02:35:33;9.25;;;3.40;;
76856;SDS011;66179;44.686;37.628;2023-04-25T02:38:00;7.77;;;3.53;;
76856;SDS011;66179;44.686;37.628;2023-04-25T02:40:26;11.18;;;3.88;;
76856;SDS011;66179;44.686;37.628;2023-04-25T02:42:53;9.60;;;3.90;;
76856;SDS011;66179;44.686;37.628;2023-04-25T02:45:20;9.70;;;3.90;;
76856;SDS011;66179;44.686;37.628;2023-04-25T02:47:48;9.27;;;3.75;;
76856;SDS011;66179;44.686;37.628;2023-04-25T02:50:14;10.83;;;3.83;;
76856;SDS011;66179;44.686;37.628;2023-04-25T02:52:41;8.77;;;3.88;;
76856;SDS011;66179;44.686;37.628;2023-04-25T02:55:14;8.68;;;3.85;;
76856;SDS011;66179;44.686;37.628;2023-04-25T02:57:41;11.05;;;4.13;;
76856;SDS011;66179;44.686;37.628;2023-04-25T03:00:11;11.65;;;4.32;;
76856;SDS011;66179;44.686;37.628;2023-04-25T03:02:40;9.80;;;4.00;;
76856;SDS011;66179;44.686;37.628;2023-04-25T03:05:07;8.25;;;4.03;;
76856;SDS011;66179;44.686;37.628;2023-04-25T03:07:35;12.75;;;4.40;;
76856;SDS011;66179;44.686;37.628;2023-04-25T03:10:02;8.75;;;4.20;;
76856;SDS011;66179;44.686;37.628;2023-04-25T03:12:31;11.02;;;4.35;;
76856;SDS011;66179;44.686;37.628;2023-04-25T03:14:58;10.27;;;4.63;;
76856;SDS011;66179;44.686;37.628;2023-04-25T03:17:25;10.63;;;4.18;;
76856;SDS011;66179;44.686;37.628;2023-04-25T03:19:51;11.55;;;4.28;;
76856;SDS011;66179;44.686;37.628;2023-04-25T03:22:18;10.15;;;4.50;;
76856;SDS011;66179;44.686;37.628;2023-04-25T03:24:45;11.52;;;4.53;;
76856;SDS011;66179;44.686;37.628;2023-04-25T03:27:14;10.70;;;4.83;;
76856;SDS011;66179;44.686;37.628;2023-04-25T03:29:40;9.98;;;4.30;;
76856;SDS011;66179;44.686;37.628;2023-04-25T03:32:08;9.63;;;3.15;;
76856;SDS011;66179;44.686;37.628;2023-04-25T03:34:35;8.25;;;2.90;;
76856;SDS011;66179;44.686;37.628;2023-04-25T03:37:02;8.65;;;3.60;;
76856;SDS011;66179;44.686;37.628;2023-04-25T03:39:33;7.73;;;3.60;;
76856;SDS011;66179;44.686;37.628;2023-04-25T03:42:00;9.90;;;3.65;;
76856;SDS011;66179;44.686;37.628;2023-04-25T03:44:29;10.13;;;3.95;;
76856;SDS011;66179;44.686;37.628;2023-04-25T03:46:56;9.68;;;4.40;;
76856;SDS011;66179;44.686;37.628;2023-04-25T03:49:24;11.75;;;4.75;;
76856;SDS011;66179;44.686;37.628;2023-04-25T03:51:56;11.43;;;4.47;;
76856;SDS011;66179;44.686;37.628;2023-04-25T03:54:24;8.73;;;4.20;;
76856;SDS011;66179;44.686;37.628;2023-04-25T03:57:19;13.05;;;4.55;;
76856;SDS011;66179;44.686;37.628;2023-04-25T03:59:46;9.95;;;4.25;;
76856;SDS011;66179;44.686;37.628;2023-04-25T04:02:15;10.52;;;4.80;;
76856;SDS011;66179;44.686;37.628;2023-04-25T04:04:42;9.57;;;4.20;;
76856;SDS011;66179;44.686;37.628;2023-04-25T04:07:10;11.13;;;4.65;;
76856;SDS011;66179;44.686;37.628;2023-04-25T04:09:40;12.00;;;4.88;;
76856;SDS011;66179;44.686;37.628;2023-04-25T04:12:10;9.63;;;4.45;;
76856;SDS011;66179;44.686;37.628;2023-04-25T04:14:40;11.68;;;4.60;;
76856;SDS011;66179;44.686;37.628;2023-04-25T04:17:06;14.57;;;5.33;;
76856;SDS011;66179;44.686;37.628;2023-04-25T04:19:33;12.10;;;5.47;;
76856;SDS011;66179;44.686;37.628;2023-04-25T04:22:20;13.70;;;5.15;;
76856;SDS011;66179;44.686;37.628;2023-04-25T04:24:47;12.02;;;4.53;;
76856;SDS011;66179;44.686;37.628;2023-04-25T04:27:21;10.38;;;4.75;;
76856;SDS011;66179;44.686;37.628;2023-04-25T04:30:06;11.53;;;5.00;;
76856;SDS011;66179;44.686;37.628;2023-04-25T04:32:39;9.75;;;4.57;;
76856;SDS011;66179;44.686;37.628;2023-04-25T04:35:06;11.88;;;5.10;;
76856;SDS011;66179;44.686;37.628;2023-04-25T04:37:33;13.82;;;5.65;;
76856;SDS011;66179;44.686;37.628;2023-04-25T04:40:01;12.23;;;5.25;;
76856;SDS011;66179;44.686;37.628;2023-04-25T04:42:46;9.13;;;4.40;;
76856;SDS011;66179;44.686;37.628;2023-04-25T04:45:36;11.73;;;4.65;;
76856;SDS011;66179;44.686;37.628;2023-04-25T04:48:33;11.45;;;5.00;;
76856;SDS011;66179;44.686;37.628;2023-04-25T04:51:27;12.45;;;5.20;;
76856;SDS011;66179;44.686;37.628;2023-04-25T04:53:53;11.65;;;5.15;;
76856;SDS011;66179;44.686;37.628;2023-04-25T04:56:53;15.13;;;5.40;;
76856;SDS011;66179;44.686;37.628;2023-04-25T04:59:22;14.35;;;5.53;;
76856;SDS011;66179;44.686;37.628;2023-04-25T05:02:06;13.10;;;5.25;;
76856;SDS011;66179;44.686;37.628;2023-04-25T05:04:55;12.23;;;5.32;;
76856;SDS011;66179;44.686;37.628;2023-04-25T05:07:54;10.80;;;5.40;;
76856;SDS011;66179;44.686;37.628;2023-04-25T05:10:40;11.17;;;5.50;;
76856;SDS011;66179;44.686;37.628;2023-04-25T05:13:30;12.93;;;5.30;;
76856;SDS011;66179;44.686;37.628;2023-04-25T05:16:15;9.65;;;5.15;;
76856;SDS011;66179;44.686;37.628;2023-04-25T05:18:56;10.45;;;5.03;;
76856;SDS011;66179;44.686;37.628;2023-04-25T05:21:43;11.98;;;5.10;;
76856;SDS011;66179;44.686;37.628;2023-04-25T05:24:29;12.77;;;5.47;;
76856;SDS011;66179;44.686;37.628;2023-04-25T05:27:11;10.35;;;5.00;;
76856;SDS011;66179;44.686;37.628;2023-04-25T05:30:00;11.35;;;5.15;;
76856;SDS011;66179;44.686;37.628;2023-04-25T05:32:47;11.35;;;4.85;;
76856;SDS011;66179;44.686;37.628;2023-04-25T05:35:14;14.27;;;4.65;;
76856;SDS011;66179;44.686;37.628;2023-04-25T05:37:45;12.03;;;5.40;;
76856;SDS011;66179;44.686;37.628;2023-04-25T05:40:14;10.13;;;4.72;;
76856;SDS011;66179;44.686;37.628;2023-04-25T05:42:43;12.55;;;4.68;;
76856;SDS011;66179;44.686;37.628;2023-04-25T05:45:29;11.48;;;4.55;;
76856;SDS011;66179;44.686;37.628;2023-04-25T05:47:55;11.73;;;5.32;;
76856;SDS011;66179;44.686;37.628;2023-04-25T05:50:43;10.37;;;4.73;;
76856;SDS011;66179;44.686;37.628;2023-04-25T05:53:19;10.27;;;4.70;;
76856;SDS011;66179;44.686;37.628;2023-04-25T05:55:52;10.20;;;4.90;;
76856;SDS011;66179;44.686;37.628;2023-04-25T05:58:27;12.73;;;4.47;;
76856;SDS011;66179;44.686;37.628;2023-04-25T06:00:55;10.02;;;4.13;;
76856;SDS011;66179;44.686;37.628;2023-04-25T06:03:22;9.70;;;4.70;;
76856;SDS011;66179;44.686;37.628;2023-04-25T06:05:49;9.32;;;4.32;;
76856;SDS011;66179;44.686;37.628;2023-04-25T06:08:16;12.95;;;4.72;;
76856;SDS011;66179;44.686;37.628;2023-04-25T06:10:42;11.57;;;5.03;;
76856;SDS011;66179;44.686;37.628;2023-04-25T06:13:09;11.65;;;5.30;;
76856;SDS011;66179;44.686;37.628;2023-04-25T06:15:37;10.07;;;4.70;;
76856;SDS011;66179;44.686;37.628;2023-04-25T06:18:03;11.10;;;4.80;;
76856;SDS011;66179;44.686;37.628;2023-04-25T06:20:30;8.93;;;4.40;;
76856;SDS011;66179;44.686;37.628;2023-04-25T06:22:59;13.82;;;4.57;;
76856;SDS011;66179;44.686;37.628;2023-04-25T06:25:49;11.38;;;4.65;;
76856;SDS011;66179;44.686;37.628;2023-04-25T06:28:15;10.03;;;4.67;;
76856;SDS011;66179;44.686;37.628;2023-04-25T06:30:43;11.75;;;4.30;;
76856;SDS011;66179;44.686;37.628;2023-04-25T06:33:13;11.43;;;4.53;;
76856;SDS011;66179;44.686;37.628;2023-04-25T06:35:41;11.38;;;4.68;;
76856;SDS011;66179;44.686;37.628;2023-04-25T06:38:11;10.68;;;4.25;;
76856;SDS011;66179;44.686;37.628;2023-04-25T06:40:39;12.80;;;4.80;;
76856;SDS011;66179;44.686;37.628;2023-04-25T06:43:07;10.15;;;4.50;;
76856;SDS011;66179;44.686;37.628;2023-04-25T06:45:50;13.40;;;4.50;;
76856;SDS011;66179;44.686;37.628;2023-04-25T06:48:18;11.95;;;5.18;;
76856;SDS011;66179;44.686;37.628;2023-04-25T06:50:44;9.25;;;4.40;;
76856;SDS011;66179;44.686;37.628;2023-04-25T06:53:12;12.60;;;4.73;;
76856;SDS011;66179;44.686;37.628;2023-04-25T06:55:40;10.55;;;4.40;;
76856;SDS011;66179;44.686;37.628;2023-04-25T06:58:13;11.18;;;4.90;;
76856;SDS011;66179;44.686;37.628;2023-04-25T07:00:51;11.73;;;4.43;;
76856;SDS011;66179;44.686;37.628;2023-04-25T07:03:20;8.65;;;4.65;;
76856;SDS011;66179;44.686;37.628;2023-04-25T07:05:47;10.10;;;4.60;;
76856;SDS011;66179;44.686;37.628;2023-04-25T07:08:13;9.73;;;4.40;;
76856;SDS011;66179;44.686;37.628;2023-04-25T07:10:41;11.65;;;4.72;;
76856;SDS011;66179;44.686;37.628;2023-04-25T07:13:07;9.32;;;4.60;;
76856;SDS011;66179;44.686;37.628;2023-04-25T07:15:34;10.95;;;4.80;;
76856;SDS011;66179;44.686;37.628;2023-04-25T07:18:01;10.57;;;4.60;;
76856;SDS011;66179;44.686;37.628;2023-04-25T07:20:28;9.52;;;4.18;;
76856;SDS011;66179;44.686;37.628;2023-04-25T07:22:57;11.10;;;4.20;;
76856;SDS011;66179;44.686;37.628;2023-04-25T07:25:23;8.93;;;4.28;;
76856;SDS011;66179;44.686;37.628;2023-04-25T07:27:51;10.05;;;4.03;;
76856;SDS011;66179;44.686;37.628;2023-04-25T07:30:20;12.50;;;4.10;;
76856;SDS011;66179;44.686;37.628;2023-04-25T07:32:46;11.13;;;4.20;;
76856;SDS011;66179;44.686;37.628;2023-04-25T07:35:13;10.15;;;4.10;;
76856;SDS011;66179;44.686;37.628;2023-04-25T07:37:41;9.32;;;3.75;;
76856;SDS011;66179;44.686;37.628;2023-04-25T07:40:12;8.77;;;3.90;;
76856;SDS011;66179;44.686;37.628;2023-04-25T07:42:44;8.67;;;4.00;;
76856;SDS011;66179;44.686;37.628;2023-04-25T07:45:12;10.60;;;4.10;;
76856;SDS011;66179;44.686;37.628;2023-04-25T07:47:40;9.90;;;3.78;;
76856;SDS011;66179;44.686;37.628;2023-04-25T07:50:07;9.88;;;4.05;;
76856;SDS011;66179;44.686;37.628;2023-04-25T07:52:34;9.77;;;3.90;;
76856;SDS011;66179;44.686;37.628;2023-04-25T07:55:18;13.03;;;4.40;;
76856;SDS011;66179;44.686;37.628;2023-04-25T07:58:07;9.57;;;3.92;;
76856;SDS011;66179;44.686;37.628;2023-04-25T08:00:36;9.55;;;3.90;;
76856;SDS011;66179;44.686;37.628;2023-04-25T08:03:36;9.88;;;3.70;;
76856;SDS011;66179;44.686;37.628;2023-04-25T08:06:07;9.75;;;4.07;;
76856;SDS011;66179;44.686;37.628;2023-04-25T08:08:43;10.23;;;4.40;;
76856;SDS011;66179;44.686;37.628;2023-04-25T08:11:12;7.78;;;4.13;;
76856;SDS011;66179;44.686;37.628;2023-04-25T08:13:39;9.88;;;4.72;;
76856;SDS011;66179;44.686;37.628;2023-04-25T08:18:43;10.00;;;4.45;;
76856;SDS011;66179;44.686;37.628;2023-04-25T08:21:09;10.03;;;4.33;;
76856;SDS011;66179;44.686;37.628;2023-04-25T08:23:38;10.65;;;4.90;;
76856;SDS011;66179;44.686;37.628;2023-04-25T08:26:15;12.75;;;5.28;;
76856;SDS011;66179;44.686;37.628;2023-04-25T08:28:42;11.43;;;5.13;;
76856;SDS011;66179;44.686;37.628;2023-04-25T08:31:09;10.45;;;4.88;;
76856;SDS011;66179;44.686;37.628;2023-04-25T08:33:48;10.00;;;4.50;;
76856;SDS011;66179;44.686;37.628;2023-04-25T08:36:32;9.18;;;4.57;;
76856;SDS011;66179;44.686;37.628;2023-04-25T08:38:59;10.57;;;4.72;;
76856;SDS011;66179;44.686;37.628;2023-04-25T08:41:26;11.35;;;4.60;;
76856;SDS011;66179;44.686;37.628;2023-04-25T08:43:54;11.02;;;4.28;;
76856;SDS011;66179;44.686;37.628;2023-04-25T08:46:24;12.70;;;4.40;;
76856;SDS011;66179;44.686;37.628;2023-04-25T08:49:07;10.23;;;4.32;;
76856;SDS011;66179;44.686;37.628;2023-04-25T08:51:41;10.18;;;3.72;;
76856;SDS011;66179;44.686;37.628;2023-04-25T08:54:16;11.15;;;4.18;;
76856;SDS011;66179;44.686;37.628;2023-04-25T08:56:47;11.88;;;4.22;;
76856;SDS011;66179;44.686;37.628;2023-04-25T08:59:14;11.17;;;4.13;;
76856;SDS011;66179;44.686;37.628;2023-04-25T09:01:43;12.48;;;4.50;;
76856;SDS011;66179;44.686;37.628;2023-04-25T09:04:11;10.50;;;3.70;;
76856;SDS011;66179;44.686;37.628;2023-04-25T09:06:39;8.40;;;4.00;;
76856;SDS011;66179;44.686;37.628;2023-04-25T09:09:07;9.98;;;4.18;;
76856;SDS011;66179;44.686;37.628;2023-04-25T09:11:37;10.93;;;3.77;;
76856;SDS011;66179;44.686;37.628;2023-04-25T09:17:03;17.15;;;4.82;;
76856;SDS011;66179;44.686;37.628;2023-04-25T09:19:49;11.93;;;4.00;;
76856;SDS011;66179;44.686;37.628;2023-04-25T09:22:22;10.30;;;3.70;;
76856;SDS011;66179;44.686;37.628;2023-04-25T09:24:49;13.48;;;3.70;;
76856;SDS011;66179;44.686;37.628;2023-04-25T09:27:18;8.88;;;3.10;;
76856;SDS011;66179;44.686;37.628;2023-04-25T09:29:58;9.10;;;3.40;;
76856;SDS011;66179;44.686;37.628;2023-04-25T09:32:43;10.00;;;3.35;;
76856;SDS011;66179;44.686;37.628;2023-04-25T09:35:11;10.02;;;3.67;;
76856;SDS011;66179;44.686;37.628;2023-04-25T09:37:53;9.60;;;3.30;;
76856;SDS011;66179;44.686;37.628;2023-04-25T09:40:58;9.23;;;3.03;;
76856;SDS011;66179;44.686;37.628;2023-04-25T09:43:38;8.10;;;3.45;;
76856;SDS011;66179;44.686;37.628;2023-04-25T09:46:09;8.27;;;2.80;;
76856;SDS011;66179;44.686;37.628;2023-04-25T09:48:41;9.73;;;3.10;;
76856;SDS011;66179;44.686;37.628;2023-04-25T09:51:16;8.48;;;3.30;;
76856;SDS011;66179;44.686;37.628;2023-04-25T09:53:46;10.73;;;3.30;;
76856;SDS011;66179;44.686;37.628;2023-04-25T09:56:22;11.05;;;3.08;;
76856;SDS011;66179;44.686;37.628;2023-04-25T09:58:50;13.52;;;3.55;;
76856;SDS011;66179;44.686;37.628;2023-04-25T10:01:20;9.68;;;3.53;;
76856;SDS011;66179;44.686;37.628;2023-04-25T10:04:11;11.32;;;3.50;;
76856;SDS011;66179;44.686;37.628;2023-04-25T10:06:50;10.15;;;3.63;;
76856;SDS011;66179;44.686;37.628;2023-04-25T10:09:20;10.85;;;3.67;;
76856;SDS011;66179;44.686;37.628;2023-04-25T10:11:51;9.30;;;3.30;;
76856;SDS011;66179;44.686;37.628;2023-04-25T10:14:18;11.02;;;3.40;;
76856;SDS011;66179;44.686;37.628;2023-04-25T10:16:46;9.02;;;3.28;;
76856;SDS011;66179;44.686;37.628;2023-04-25T10:19:13;9.25;;;3.50;;
76856;SDS011;66179;44.686;37.628;2023-04-25T10:21:46;8.80;;;3.30;;
76856;SDS011;66179;44.686;37.628;2023-04-25T10:24:17;10.02;;;3.50;;
76856;SDS011;66179;44.686;37.628;2023-04-25T10:26:44;9.88;;;3.15;;
76856;SDS011;66179;44.686;37.628;2023-04-25T10:29:12;7.68;;;3.05;;
76856;SDS011;66179;44.686;37.628;2023-04-25T10:31:48;9.35;;;3.17;;
76856;SDS011;66179;44.686;37.628;2023-04-25T10:34:15;10.80;;;3.53;;
76856;SDS011;66179;44.686;37.628;2023-04-25T10:36:43;9.52;;;2.92;;
76856;SDS011;66179;44.686;37.628;2023-04-25T10:39:23;9.43;;;3.65;;
76856;SDS011;66179;44.686;37.628;2023-04-25T10:41:53;9.18;;;3.13;;
76856;SDS011;66179;44.686;37.628;2023-04-25T10:44:27;10.10;;;3.70;;
76856;SDS011;66179;44.686;37.628;2023-04-25T10:46:55;9.85;;;3.00;;
76856;SDS011;66179;44.686;37.628;2023-04-25T10:49:30;6.95;;;2.90;;
76856;SDS011;66179;44.686;37.628;2023-04-25T10:54:59;10.02;;;3.10;;
76856;SDS011;66179;44.686;37.628;2023-04-25T10:57:42;10.00;;;3.08;;
76856;SDS011;66179;44.686;37.628;2023-04-25T11:00:19;10.07;;;3.20;;
76856;SDS011;66179;44.686;37.628;2023-04-25T11:05:22;8.20;;;3.15;;
76856;SDS011;66179;44.686;37.628;2023-04-25T11:07:59;9.10;;;3.10;;
76856;SDS011;66179;44.686;37.628;2023-04-25T11:10:27;8.98;;;3.47;;
76856;SDS011;66179;44.686;37.628;2023-04-25T11:12:58;10.45;;;4.10;;
76856;SDS011;66179;44.686;37.628;2023-04-25T11:15:26;9.32;;;3.55;;
76856;SDS011;66179;44.686;37.628;2023-04-25T11:17:53;9.60;;;3.70;;
76856;SDS011;66179;44.686;37.628;2023-04-25T11:20:20;11.13;;;3.17;;
76856;SDS011;66179;44.686;37.628;2023-04-25T11:22:48;8.90;;;3.30;;
76856;SDS011;66179;44.686;37.628;2023-04-25T11:25:15;10.82;;;3.60;;
76856;SDS011;66179;44.686;37.628;2023-04-25T11:27:58;10.40;;;3.65;;
76856;SDS011;66179;44.686;37.628;2023-04-25T11:30:27;10.18;;;3.95;;
76856;SDS011;66179;44.686;37.628;2023-04-25T11:32:56;9.70;;;3.92;;
76856;SDS011;66179;44.686;37.628;2023-04-25T11:35:23;9.98;;;3.63;;
76856;SDS011;66179;44.686;37.628;2023-04-25T11:37:51;9.07;;;3.58;;
76856;SDS011;66179;44.686;37.628;2023-04-25T11:40:18;10.27;;;3.90;;
76856;SDS011;66179;44.686;37.628;2023-04-25T11:42:45;12.07;;;4.10;;
76856;SDS011;66179;44.686;37.628;2023-04-25T11:45:13;10.38;;;4.22;;
76856;SDS011;66179;44.686;37.628;2023-04-25T11:47:40;11.13;;;3.60;;
76856;SDS011;66179;44.686;37.628;2023-04-25T11:50:07;11.35;;;3.70;;
76856;SDS011;66179;44.686;37.628;2023-04-25T11:52:44;9.13;;;3.90;;
76856;SDS011;66179;44.686;37.628;2023-04-25T11:55:19;11.77;;;3.80;;
76856;SDS011;66179;44.686;37.628;2023-04-25T11:57:49;10.73;;;4.30;;
76856;SDS011;66179;44.686;37.628;2023-04-25T12:00:20;13.45;;;4.20;;
76856;SDS011;66179;44.686;37.628;2023-04-25T12:02:50;13.02;;;4.43;;
76856;SDS011;66179;44.686;37.628;2023-04-25T12:05:18;11.32;;;3.88;;
76856;SDS011;66179;44.686;37.628;2023-04-25T12:07:46;12.75;;;4.03;;
76856;SDS011;66179;44.686;37.628;2023-04-25T12:10:17;9.93;;;3.80;;
76856;SDS011;66179;44.686;37.628;2023-04-25T12:12:46;9.43;;;3.55;;
76856;SDS011;66179;44.686;37.628;2023-04-25T12:15:15;9.20;;;3.75;;
76856;SDS011;66179;44.686;37.628;2023-04-25T12:17:48;11.18;;;3.75;;
76856;SDS011;66179;44.686;37.628;2023-04-25T12:20:17;10.25;;;3.60;;
76856;SDS011;66179;44.686;37.628;2023-04-25T12:22:50;10.40;;;3.60;;
76856;SDS011;66179;44.686;37.628;2023-04-25T12:25:39;11.13;;;3.25;;
76856;SDS011;66179;44.686;37.628;2023-04-25T12:31:00;10.57;;;3.92;;
76856;SDS011;66179;44.686;37.628;2023-04-25T12:33:28;10.77;;;3.50;;
76856;SDS011;66179;44.686;37.628;2023-04-25T12:35:56;12.38;;;3.63;;
76856;SDS011;66179;44.686;37.628;2023-04-25T12:38:24;12.00;;;4.00;;
76856;SDS011;66179;44.686;37.628;2023-04-25T12:40:52;10.13;;;3.60;;
76856;SDS011;66179;44.686;37.628;2023-04-25T12:43:19;8.75;;;3.30;;
76856;SDS011;66179;44.686;37.628;2023-04-25T12:45:47;8.07;;;3.05;;
76856;SDS011;66179;44.686;37.628;2023-04-25T12:48:19;9.77;;;3.20;;
76856;SDS011;66179;44.686;37.628;2023-04-25T12:50:46;8.70;;;3.33;;
76856;SDS011;66179;44.686;37.628;2023-04-25T12:53:19;9.95;;;3.70;;
76856;SDS011;66179;44.686;37.628;2023-04-25T12:55:47;11.43;;;3.85;;
76856;SDS011;66179;44.686;37.628;2023-04-25T12:58:15;11.20;;;3.67;;
76856;SDS011;66179;44.686;37.628;2023-04-25T13:00:43;12.90;;;3.50;;
76856;SDS011;66179;44.686;37.628;2023-04-25T13:03:10;8.10;;;3.40;;
76856;SDS011;66179;44.686;37.628;2023-04-25T13:05:38;9.55;;;3.67;;
76856;SDS011;66179;44.686;37.628;2023-04-25T13:08:05;9.77;;;3.17;;
76856;SDS011;66179;44.686;37.628;2023-04-25T13:10:32;11.80;;;3.33;;
76856;SDS011;66179;44.686;37.628;2023-04-25T13:12:59;10.23;;;3.58;;
76856;SDS011;66179;44.686;37.628;2023-04-25T13:15:28;8.65;;;3.70;;
76856;SDS011;66179;44.686;37.628;2023-04-25T13:17:54;12.02;;;3.97;;
76856;SDS011;66179;44.686;37.628;2023-04-25T13:20:21;10.43;;;3.72;;
76856;SDS011;66179;44.686;37.628;2023-04-25T13:22:48;10.25;;;3.50;;
76856;SDS011;66179;44.686;37.628;2023-04-25T13:25:14;7.95;;;3.20;;
76856;SDS011;66179;44.686;37.628;2023-04-25T13:27:42;7.95;;;3.28;;
76856;SDS011;66179;44.686;37.628;2023-04-25T13:30:10;9.57;;;3.58;;
76856;SDS011;66179;44.686;37.628;2023-04-25T13:32:37;10.07;;;3.40;;
76856;SDS011;66179;44.686;37.628;2023-04-25T13:35:04;9.70;;;3.60;;
76856;SDS011;66179;44.686;37.628;2023-04-25T13:37:33;10.27;;;3.30;;
76856;SDS011;66179;44.686;37.628;2023-04-25T13:40:00;10.82;;;3.20;;
76856;SDS011;66179;44.686;37.628;2023-04-25T13:42:30;9.32;;;3.50;;
76856;SDS011;66179;44.686;37.628;2023-04-25T13:44:57;9.55;;;3.33;;
76856;SDS011;66179;44.686;37.628;2023-04-25T13:47:24;10.63;;;3.38;;
76856;SDS011;66179;44.686;37.628;2023-04-25T13:49:52;9.60;;;3.00;;
76856;SDS011;66179;44.686;37.628;2023-04-25T13:52:18;9.80;;;3.22;;
76856;SDS011;66179;44.686;37.628;2023-04-25T13:54:45;9.93;;;3.40;;
76856;SDS011;66179;44.686;37.628;2023-04-25T13:57:12;10.82;;;3.50;;
76856;SDS011;66179;44.686;37.628;2023-04-25T13:59:39;8.85;;;3.03;;
76856;SDS011;66179;44.686;37.628;2023-04-25T14:02:07;11.52;;;3.40;;
76856;SDS011;66179;44.686;37.628;2023-04-25T14:04:33;10.27;;;3.35;;
76856;SDS011;66179;44.686;37.628;2023-04-25T14:07:00;7.97;;;3.10;;
76856;SDS011;66179;44.686;37.628;2023-04-25T14:09:28;9.48;;;3.10;;
76856;SDS011;66179;44.686;37.628;2023-04-25T14:11:54;9.85;;;3.17;;
76856;SDS011;66179;44.686;37.628;2023-04-25T14:14:22;16.50;;;3.55;;
76856;SDS011;66179;44.686;37.628;2023-04-25T14:16:50;9.50;;;3.08;;
76856;SDS011;66179;44.686;37.628;2023-04-25T14:19:20;9.55;;;3.83;;
76856;SDS011;66179;44.686;37.628;2023-04-25T14:21:46;8.93;;;3.10;;
76856;SDS011;66179;44.686;37.628;2023-04-25T14:24:13;9.95;;;3.50;;
76856;SDS011;66179;44.686;37.628;2023-04-25T14:26:40;7.97;;;3.20;;
76856;SDS011;66179;44.686;37.628;2023-04-25T14:29:08;11.68;;;3.08;;
76856;SDS011;66179;44.686;37.628;2023-04-25T14:31:37;8.32;;;3.33;;
76856;SDS011;66179;44.686;37.628;2023-04-25T14:34:05;8.27;;;3.17;;
76856;SDS011;66179;44.686;37.628;2023-04-25T14:36:32;12.55;;;3.95;;
76856;SDS011;66179;44.686;37.628;2023-04-25T14:38:59;12.68;;;3.85;;
76856;SDS011;66179;44.686;37.628;2023-04-25T14:41:26;9.93;;;3.40;;
76856;SDS011;66179;44.686;37.628;2023-04-25T14:43:53;11.40;;;3.92;;
76856;SDS011;66179;44.686;37.628;2023-04-25T14:46:20;11.27;;;3.10;;
76856;SDS011;66179;44.686;37.628;2023-04-25T14:48:48;12.07;;;3.13;;
76856;SDS011;66179;44.686;37.628;2023-04-25T14:51:15;9.38;;;3.00;;
76856;SDS011;66179;44.686;37.628;2023-04-25T14:53:42;9.98;;;3.10;;
76856;SDS011;66179;44.686;37.628;2023-04-25T14:56:09;8.98;;;3.20;;
76856;SDS011;66179;44.686;37.628;2023-04-25T14:58:36;11.95;;;2.97;;
76856;SDS011;66179;44.686;37.628;2023-04-25T15:01:03;7.85;;;3.30;;
76856;SDS011;66179;44.686;37.628;2023-04-25T15:03:30;7.35;;;2.60;;